createdAt,value
2023-04-04T00:04:45.376Z,0
2023-04-04T00:10:02.587Z,0
2023-04-04T00:15:19.898Z,0
2023-04-04T00:20:39.019Z,0
2023-04-04T00:25:56.673Z,0
2023-04-04T00:31:14.136Z,0
2023-04-04T00:36:34.199Z,0
2023-04-04T00:41:51.436Z,0
2023-04-04T00:47:08.746Z,0
2023-04-04T00:52:26.420Z,0
2023-04-04T00:57:43.675Z,0
2023-04-04T01:03:01.095Z,0
2023-04-04T01:08:18.583Z,0
2023-04-04T01:13:35.879Z,0
2023-04-04T01:18:53.499Z,0
2023-04-04T01:24:10.793Z,0
2023-04-04T01:29:28.163Z,0
2023-04-04T01:34:45.724Z,0
2023-04-04T01:40:08.794Z,0
2023-04-04T01:45:26.372Z,0
2023-04-04T01:50:43.627Z,0
2023-04-04T01:56:00.938Z,0
2023-04-04T02:01:18.340Z,0
2023-04-04T02:06:35.692Z,0
2023-04-04T02:11:52.956Z,0
2023-04-04T02:17:10.225Z,0
2023-04-04T02:22:27.488Z,0
2023-04-04T02:27:44.859Z,0
2023-04-04T02:33:02.252Z,0
2023-04-04T02:38:19.734Z,0
2023-04-04T02:43:37.029Z,0
2023-04-04T02:49:15.128Z,0
2023-04-04T02:54:33.071Z,0
2023-04-04T02:59:53.078Z,0
2023-04-04T03:05:10.278Z,0
2023-04-04T03:10:27.472Z,0
2023-04-04T03:15:47.319Z,0
2023-04-04T03:21:22.069Z,0
2023-04-04T03:26:39.608Z,0
2023-04-04T03:32:14.086Z,0
2023-04-04T03:37:31.682Z,0
2023-04-04T03:42:48.923Z,0
2023-04-04T03:48:06.214Z,0
2023-04-04T03:53:23.441Z,0
2023-04-04T03:58:40.764Z,0
2023-04-04T04:04:35.263Z,0
2023-04-04T04:09:53.473Z,0
2023-04-04T04:15:10.737Z,0
2023-04-04T04:20:28.138Z,0
2023-04-04T04:25:45.444Z,0
2023-04-04T04:31:02.783Z,0
2023-04-04T04:36:20.023Z,0
2023-04-04T04:41:37.686Z,0
2023-04-04T04:46:55.097Z,0.5
2023-04-04T04:52:12.712Z,29.2
2023-04-04T04:57:29.771Z,64.2
2023-04-04T05:02:47.193Z,117.5
2023-04-04T05:08:04.254Z,195
2023-04-04T05:13:21.157Z,304.6
2023-04-04T05:18:59.296Z,442.9
2023-04-04T05:24:16.384Z,646.7
2023-04-04T05:29:33.297Z,819.6
2023-04-04T05:34:50.648Z,986.7
2023-04-04T05:40:07.800Z,1157.5
2023-04-04T05:45:42.391Z,1354.2
2023-04-04T05:50:59.824Z,1538.3
2023-04-04T05:56:16.971Z,1692.9
2023-04-04T06:01:34.022Z,2055.8
2023-04-04T06:06:51.369Z,2358.3
2023-04-04T06:12:16.065Z,2252.1
2023-04-04T06:17:33.362Z,2523.3
2023-04-04T06:22:50.962Z,2906.3
2023-04-04T06:28:08.378Z,2843.3
2023-04-04T06:33:25.629Z,2780.8
2023-04-04T06:38:42.493Z,2907.9
2023-04-04T06:43:59.623Z,3172.9
2023-04-04T06:49:17.094Z,2968.3
2023-04-04T06:54:34.369Z,2935
2023-04-04T06:59:51.440Z,3444.2
2023-04-04T07:05:15.193Z,3555.4
2023-04-04T07:10:32.581Z,3964.2
2023-04-04T07:15:49.552Z,3905
2023-04-04T07:21:06.861Z,3836.2
2023-04-04T07:26:24.242Z,6081.7
2023-04-04T07:31:58.933Z,4628.3
2023-04-04T07:37:20.352Z,11966.7
2023-04-04T07:42:38.078Z,17687.5
2023-04-04T07:47:56.676Z,20941.2
2023-04-04T07:53:14.890Z,19217.1
2023-04-04T07:58:42.178Z,21140.4
2023-04-04T08:04:00.656Z,21950
2023-04-04T08:09:18.710Z,23093.7
2023-04-04T08:14:36.461Z,25883.7
2023-04-04T08:19:53.990Z,25233.3
2023-04-04T08:25:56.525Z,24625.4
2023-04-04T08:31:14.703Z,28433.3
2023-04-04T08:36:31.939Z,28841.7
2023-04-04T08:42:06.446Z,29173.3
2023-04-04T08:47:23.665Z,31405.8
2023-04-04T08:52:41.488Z,31980.8
2023-04-04T08:57:58.836Z,33029.2
2023-04-04T09:03:15.869Z,31885.8
2023-04-04T09:19:17.098Z,36450.8
2023-04-04T09:24:34.367Z,35699.2
2023-04-04T09:29:54.418Z,34351.7
2023-04-04T09:35:11.855Z,35960
2023-04-04T09:40:29.291Z,36831.7
2023-04-04T09:45:46.595Z,30815.8
2023-04-04T09:51:04.184Z,34920.8
2023-04-04T09:56:22.997Z,38639.2
2023-04-04T10:01:40.295Z,40239.2
2023-04-04T10:06:57.773Z,39673.3
2023-04-04T10:12:15.065Z,38923.3
2023-04-04T10:17:41.069Z,40492.5
2023-04-04T10:22:58.564Z,42892.5
2023-04-04T10:28:15.788Z,43095
2023-04-04T10:33:32.711Z,41335
2023-04-04T10:44:07.115Z,38469.2
2023-04-04T10:49:24.584Z,40452.5
2023-04-04T10:54:59.268Z,41618.3
2023-04-04T11:00:17.159Z,42407.5
2023-04-04T11:05:35.094Z,36215
2023-04-04T11:10:52.893Z,37456.7
2023-04-04T11:16:15.488Z,36532.5
2023-04-04T11:21:33.539Z,42286.7
2023-04-04T11:26:50.972Z,42125.8
2023-04-04T11:32:07.755Z,43850
2023-04-04T11:37:25.254Z,44362.5
2023-04-04T11:42:42.270Z,44575.8
2023-04-04T11:47:59.656Z,43165.8
2023-04-04T11:53:16.948Z,40343.3
2023-04-04T11:58:33.110Z,45135.8
2023-04-04T12:03:50.625Z,42130.8
2023-04-04T12:09:13.665Z,41375.8
2023-04-04T12:14:31.059Z,39831.7
2023-04-04T12:19:48.317Z,42127.5
2023-04-04T12:25:05.873Z,34683.3
2023-04-04T12:30:23.513Z,33996.7
2023-04-04T12:35:40.274Z,34385.8
2023-04-04T12:41:14.905Z,35500
2023-04-04T12:46:32.195Z,39238.3
2023-04-04T12:51:52.446Z,35015
2023-04-04T12:57:09.534Z,36876.7
2023-04-04T13:02:26.423Z,37586.7
2023-04-04T13:07:43.730Z,36502.5
2023-04-04T13:13:00.980Z,36121.7
2023-04-04T13:18:20.585Z,34336.7
2023-04-04T13:23:38.236Z,35452.5
2023-04-04T13:28:55.436Z,34962.5
2023-04-04T13:34:12.383Z,34336.7
2023-04-04T13:39:29.404Z,33364.2
2023-04-04T13:44:46.370Z,33050
2023-04-04T13:50:03.015Z,27696.7
2023-04-04T13:55:19.893Z,28410.8
2023-04-04T14:00:37.312Z,30516.7
2023-04-04T14:06:31.798Z,29537.5
2023-04-04T14:11:49.404Z,30301.7
2023-04-04T14:17:06.157Z,26647.5
2023-04-04T14:22:23.125Z,25820.4
2023-04-04T14:27:39.544Z,18576.7
2023-04-04T14:32:55.777Z,18655.8
2023-04-04T14:38:13.016Z,19791.7
2023-04-04T14:43:37.155Z,21428.3
2023-04-04T14:48:55.322Z,16332.1
2023-04-04T14:54:11.889Z,13508.7
2023-04-04T14:59:28.800Z,12830.8
2023-04-04T15:04:45.028Z,5837.5
2023-04-04T15:10:00.399Z,5033.8
2023-04-04T15:15:23.705Z,4651.7
2023-04-04T15:20:40.647Z,3963.3
2023-04-04T15:25:57.171Z,4496.7
2023-04-04T15:31:14.138Z,5561.7
2023-04-04T15:36:31.130Z,6789.6
2023-04-04T15:41:48.289Z,8427.9
2023-04-04T15:47:06.050Z,8641.7
2023-04-04T15:52:23.222Z,9186.7
2023-04-04T15:57:40.292Z,8935.8
2023-04-04T16:02:57.418Z,8437.1
2023-04-04T16:08:14.412Z,8068.3
2023-04-04T16:13:31.184Z,7851.7
2023-04-04T16:18:48.332Z,7909.6
2023-04-04T16:24:05.496Z,7185
2023-04-04T16:29:22.047Z,6272.1
2023-04-04T16:34:38.828Z,5992.9
2023-04-04T16:39:55.629Z,5480
2023-04-04T16:45:12.259Z,5055.4
2023-04-04T16:50:29.287Z,5038.8
2023-04-04T16:55:46.438Z,4626.3
2023-04-04T17:01:03.288Z,4095.8
2023-04-04T17:06:20.499Z,3589.6
2023-04-04T17:11:37.490Z,3135.8
2023-04-04T17:16:54.335Z,2700.8
2023-04-04T17:22:11.070Z,2360.8
2023-04-04T17:27:28.029Z,2081.7
2023-04-04T17:32:45.217Z,1788.3
2023-04-04T17:38:02.116Z,1433.3
2023-04-04T17:43:19.018Z,1125
2023-04-04T17:48:35.949Z,845.8
2023-04-04T17:53:52.832Z,633.3
2023-04-04T17:59:09.914Z,466.3
2023-04-04T18:04:27.109Z,330.4
2023-04-04T18:09:43.930Z,217.9
2023-04-04T18:15:00.788Z,128.3
2023-04-04T18:20:32.147Z,64.6
2023-04-04T18:25:51.717Z,24.6
2023-04-04T18:31:08.846Z,0.5
2023-04-04T18:36:26.164Z,0
2023-04-04T18:41:43.659Z,0
2023-04-04T18:47:00.898Z,0
2023-04-04T18:52:18.304Z,0
2023-04-04T18:57:35.762Z,0
2023-04-04T19:02:53.331Z,0
2023-04-04T19:08:10.739Z,0
2023-04-04T19:13:28.340Z,0
2023-04-04T19:18:45.856Z,0
2023-04-04T19:24:03.144Z,0
2023-04-04T19:29:20.533Z,0
2023-04-04T19:34:37.728Z,0
2023-04-04T19:39:55.200Z,0
2023-04-04T19:45:12.701Z,0
2023-04-04T19:50:40.088Z,0
2023-04-04T19:55:57.553Z,0
2023-04-04T20:01:15.025Z,0
2023-04-04T20:06:32.350Z,0
2023-04-04T20:11:49.542Z,0
2023-04-04T20:17:06.812Z,0
2023-04-04T20:22:24.218Z,0
2023-04-04T20:27:41.636Z,0
2023-04-04T20:32:59.000Z,0
2023-04-04T20:38:16.328Z,0
2023-04-04T20:43:33.736Z,0
2023-04-04T20:48:51.154Z,0
2023-04-04T20:54:08.355Z,0
2023-04-04T20:59:25.950Z,0
2023-04-04T21:04:43.730Z,0
2023-04-04T21:10:01.236Z,0
2023-04-04T21:15:21.773Z,0
2023-04-04T21:20:39.417Z,0
2023-04-04T21:25:56.930Z,0
2023-04-04T21:31:14.624Z,0
2023-04-04T21:36:32.115Z,0
2023-04-04T21:42:35.070Z,0
2023-04-04T21:47:52.968Z,0
2023-04-04T21:53:12.407Z,0
2023-04-04T21:58:29.670Z,0
2023-04-04T22:03:46.933Z,0
2023-04-04T22:09:04.418Z,0
2023-04-04T22:14:22.179Z,0
2023-04-04T22:19:39.472Z,0
2023-04-04T22:24:56.989Z,0
2023-04-04T22:30:14.363Z,0
2023-04-04T22:35:31.732Z,0
2023-04-04T22:40:49.167Z,0
2023-04-04T22:46:06.445Z,0
2023-04-04T22:51:23.504Z,0
2023-04-04T22:56:47.920Z,0
2023-04-04T23:02:05.502Z,0
2023-04-04T23:07:22.693Z,0
2023-04-04T23:12:40.902Z,0
2023-04-04T23:18:05.365Z,0
2023-04-04T23:23:22.976Z,0
2023-04-04T23:28:43.761Z,0
2023-04-04T23:34:01.189Z,0
2023-04-04T23:39:18.477Z,0
2023-04-04T23:44:35.870Z,0
2023-04-04T23:49:53.595Z,0
2023-04-04T23:55:10.917Z,0
